Terminal Aerodrome Forecast
Issued by NWS Des Moines, IA

Home | Current Version | Previous Version | Text Only | Print | Product List | Glossary On
Versions: 1 2 3 4 5 6 7 8 9 10 11 12 13 14 15 16 17 18 19 20 21 22 23 24 25 26 27 28
000
FTUS43 KDMX 242332
TAFALO
TAF
KALO 242332Z 2500/2524 VRB06KT P6SM VCSH FEW040 SCT070 OVC120
     FM250200 16010KT P6SM SCT070 BKN120
     FM250800 16012G18KT P6SM VCTS SCT040CB BKN070 OVC120
     FM251500 17012G18KT P6SM SCT035 BKN150=

USA.gov is the U.S. government's official web portal to all federal, state and local government web resources and services.